sensor_id;sensor_type;location;lat;lon;timestamp;pressure;altitude;pressure_sealevel;temperature;humidity
8366;BME280;4220;42.502;24.188;2022-07-04T00:01:19;95598.19;;;21.36;93.28
8366;BME280;4220;42.502;24.188;2022-07-04T00:03:46;95596.28;;;21.37;92.26
8366;BME280;4220;42.502;24.188;2022-07-04T00:06:13;95594.94;;;21.39;92.52
8366;BME280;4220;42.502;24.188;2022-07-04T00:08:41;95602.22;;;21.39;91.84
8366;BME280;4220;42.502;24.188;2022-07-04T00:11:08;95599.88;;;21.12;93.21
8366;BME280;4220;42.502;24.188;2022-07-04T00:13:34;95602.63;;;20.82;94.15
8366;BME280;4220;42.502;24.188;2022-07-04T00:16:01;95594.56;;;20.72;94.46
8366;BME280;4220;42.502;24.188;2022-07-04T00:18:28;95600.53;;;20.44;95.85
8366;BME280;4220;42.502;24.188;2022-07-04T00:20:55;95594.59;;;20.37;96.33
8366;BME280;4220;42.502;24.188;2022-07-04T00:23:21;95591.31;;;20.04;100.00
8366;BME280;4220;42.502;24.188;2022-07-04T00:25:50;95592.63;;;19.82;100.00
8366;BME280;4220;42.502;24.188;2022-07-04T00:28:16;95596.13;;;19.77;100.00
8366;BME280;4220;42.502;24.188;2022-07-04T00:30:43;95585.09;;;19.84;100.00
8366;BME280;4220;42.502;24.188;2022-07-04T00:33:11;95556.00;;;19.55;100.00
8366;BME280;4220;42.502;24.188;2022-07-04T00:35:39;95585.41;;;19.97;100.00
8366;BME280;4220;42.502;24.188;2022-07-04T00:38:05;95582.97;;;20.01;100.00
8366;BME280;4220;42.502;24.188;2022-07-04T00:40:32;95582.13;;;19.95;100.00
8366;BME280;4220;42.502;24.188;2022-07-04T00:43:01;95580.56;;;19.99;100.00
8366;BME280;4220;42.502;24.188;2022-07-04T00:45:28;95579.75;;;20.14;100.00
8366;BME280;4220;42.502;24.188;2022-07-04T00:47:55;95576.28;;;20.29;98.92
8366;BME280;4220;42.502;24.188;2022-07-04T00:50:23;95567.38;;;20.33;97.38
8366;BME280;4220;42.502;24.188;2022-07-04T00:52:51;95566.03;;;20.36;97.52
8366;BME280;4220;42.502;24.188;2022-07-04T00:55:19;95564.69;;;20.43;97.39
8366;BME280;4220;42.502;24.188;2022-07-04T00:57:47;95554.72;;;20.49;97.03
8366;BME280;4220;42.502;24.188;2022-07-04T01:00:17;95559.28;;;20.58;95.77
8366;BME280;4220;42.502;24.188;2022-07-04T01:02:45;95562.22;;;20.67;94.68
8366;BME280;4220;42.502;24.188;2022-07-04T01:05:12;95566.28;;;20.54;95.06
8366;BME280;4220;42.502;24.188;2022-07-04T01:07:39;95563.06;;;20.27;96.65
8366;BME280;4220;42.502;24.188;2022-07-04T01:10:07;95559.84;;;20.30;96.83
8366;BME280;4220;42.502;24.188;2022-07-04T01:12:35;95560.38;;;20.37;96.65
8366;BME280;4220;42.502;24.188;2022-07-04T01:15:02;95559.84;;;20.25;97.81
8366;BME280;4220;42.502;24.188;2022-07-04T01:17:30;95547.72;;;20.28;98.09
8366;BME280;4220;42.502;24.188;2022-07-04T01:19:57;95542.03;;;20.04;98.65
8366;BME280;4220;42.502;24.188;2022-07-04T01:22:25;95544.19;;;20.02;99.69
8366;BME280;4220;42.502;24.188;2022-07-04T01:24:52;95553.59;;;19.84;100.00
8366;BME280;4220;42.502;24.188;2022-07-04T01:27:19;95542.84;;;19.89;100.00
8366;BME280;4220;42.502;24.188;2022-07-04T01:29:46;95540.69;;;19.96;100.00
8366;BME280;4220;42.502;24.188;2022-07-04T01:32:13;95538.50;;;19.68;100.00
8366;BME280;4220;42.502;24.188;2022-07-04T01:34:40;95551.31;;;19.26;100.00
8366;BME280;4220;42.502;24.188;2022-07-04T01:37:06;95548.84;;;19.24;100.00
8366;BME280;4220;42.502;24.188;2022-07-04T01:39:35;95551.31;;;19.26;100.00
8366;BME280;4220;42.502;24.188;2022-07-04T01:42:02;95544.16;;;18.94;100.00
8366;BME280;4220;42.502;24.188;2022-07-04T01:44:29;95536.16;;;19.10;100.00
8366;BME280;4220;42.502;24.188;2022-07-04T01:46:55;95534.31;;;19.15;100.00
8366;BME280;4220;42.502;24.188;2022-07-04T01:49:22;95546.97;;;19.25;100.00
8366;BME280;4220;42.502;24.188;2022-07-04T01:51:50;95550.28;;;19.42;100.00
8366;BME280;4220;42.502;24.188;2022-07-04T01:54:17;95545.44;;;19.39;100.00
8366;BME280;4220;42.502;24.188;2022-07-04T01:56:46;95551.94;;;19.43;100.00
8366;BME280;4220;42.502;24.188;2022-07-04T01:59:13;95545.31;;;19.04;100.00
8366;BME280;4220;42.502;24.188;2022-07-04T02:01:40;95549.63;;;18.58;100.00
8366;BME280;4220;42.502;24.188;2022-07-04T02:04:06;95545.75;;;18.44;100.00
8366;BME280;4220;42.502;24.188;2022-07-04T02:06:33;95547.16;;;18.46;100.00
8366;BME280;4220;42.502;24.188;2022-07-04T02:09:00;95545.84;;;18.54;100.00
8366;BME280;4220;42.502;24.188;2022-07-04T02:11:46;95537.06;;;18.32;100.00
8366;BME280;4220;42.502;24.188;2022-07-04T02:14:31;95542.84;;;18.50;100.00
8366;BME280;4220;42.502;24.188;2022-07-04T02:16:58;95550.41;;;18.53;100.00
8366;BME280;4220;42.502;24.188;2022-07-04T02:19:25;95544.47;;;18.46;100.00
8366;BME280;4220;42.502;24.188;2022-07-04T02:21:52;95549.31;;;18.49;100.00
8366;BME280;4220;42.502;24.188;2022-07-04T02:24:19;95549.91;;;18.56;100.00
8366;BME280;4220;42.502;24.188;2022-07-04T02:26:47;95553.50;;;18.35;100.00
8366;BME280;4220;42.502;24.188;2022-07-04T02:29:14;95556.09;;;18.25;100.00
8366;BME280;4220;42.502;24.188;2022-07-04T02:31:41;95517.03;;;18.07;100.00
8366;BME280;4220;42.502;24.188;2022-07-04T02:34:08;95549.22;;;18.39;100.00
8366;BME280;4220;42.502;24.188;2022-07-04T02:36:35;95546.72;;;18.27;100.00
8366;BME280;4220;42.502;24.188;2022-07-04T02:39:02;95546.38;;;18.19;100.00
8366;BME280;4220;42.502;24.188;2022-07-04T02:41:30;95544.56;;;18.24;100.00
8366;BME280;4220;42.502;24.188;2022-07-04T02:43:58;95542.16;;;18.28;100.00
8366;BME280;4220;42.502;24.188;2022-07-04T02:46:25;95544.63;;;18.35;100.00
8366;BME280;4220;42.502;24.188;2022-07-04T02:48:52;95536.53;;;18.29;100.00
8366;BME280;4220;42.502;24.188;2022-07-04T02:51:19;95547.56;;;18.33;100.00
8366;BME280;4220;42.502;24.188;2022-07-04T02:53:47;95547.84;;;18.37;100.00
8366;BME280;4220;42.502;24.188;2022-07-04T02:56:13;95548.13;;;18.35;100.00
8366;BME280;4220;42.502;24.188;2022-07-04T02:58:40;95548.78;;;18.47;100.00
8366;BME280;4220;42.502;24.188;2022-07-04T03:01:08;95547.63;;;18.43;100.00
8366;BME280;4220;42.502;24.188;2022-07-04T03:03:35;95547.75;;;18.58;100.00
8366;BME280;4220;42.502;24.188;2022-07-04T03:06:02;95553.56;;;18.45;100.00
8366;BME280;4220;42.502;24.188;2022-07-04T03:08:29;95548.94;;;18.41;100.00
8366;BME280;4220;42.502;24.188;2022-07-04T03:10:56;95513.59;;;18.12;100.00
8366;BME280;4220;42.502;24.188;2022-07-04T03:13:22;95541.59;;;18.26;100.00
8366;BME280;4220;42.502;24.188;2022-07-04T03:15:50;95549.50;;;18.38;100.00
8366;BME280;4220;42.502;24.188;2022-07-04T03:18:18;95538.13;;;18.30;100.00
8366;BME280;4220;42.502;24.188;2022-07-04T03:20:46;95553.97;;;18.27;100.00
8366;BME280;4220;42.502;24.188;2022-07-04T03:23:12;95539.44;;;18.23;100.00
8366;BME280;4220;42.502;24.188;2022-07-04T03:25:39;95550.75;;;18.25;100.00
8366;BME280;4220;42.502;24.188;2022-07-04T03:28:07;95555.06;;;18.31;100.00
8366;BME280;4220;42.502;24.188;2022-07-04T03:30:34;95558.72;;;18.15;100.00
8366;BME280;4220;42.502;24.188;2022-07-04T03:33:01;95552.81;;;18.13;100.00
8366;BME280;4220;42.502;24.188;2022-07-04T03:35:30;95556.84;;;18.15;100.00
8366;BME280;4220;42.502;24.188;2022-07-04T03:37:57;95553.22;;;18.00;100.00
8366;BME280;4220;42.502;24.188;2022-07-04T03:40:24;95551.69;;;18.09;100.00
8366;BME280;4220;42.502;24.188;2022-07-04T03:42:53;95553.19;;;18.32;100.00
8366;BME280;4220;42.502;24.188;2022-07-04T03:45:20;95557.78;;;18.36;100.00
8366;BME280;4220;42.502;24.188;2022-07-04T03:47:47;95552.25;;;18.48;100.00
8366;BME280;4220;42.502;24.188;2022-07-04T03:50:14;95551.63;;;18.41;100.00
8366;BME280;4220;42.502;24.188;2022-07-04T03:52:43;95546.47;;;18.29;100.00
8366;BME280;4220;42.502;24.188;2022-07-04T03:55:10;95540.88;;;18.41;100.00
8366;BME280;4220;42.502;24.188;2022-07-04T03:57:37;95557.47;;;18.64;100.00
8366;BME280;4220;42.502;24.188;2022-07-04T04:00:04;95551.09;;;18.80;100.00
8366;BME280;4220;42.502;24.188;2022-07-04T04:02:33;95553.78;;;18.80;100.00
8366;BME280;4220;42.502;24.188;2022-07-04T04:04:59;95544.41;;;18.88;98.94
8366;BME280;4220;42.502;24.188;2022-07-04T04:07:45;95559.84;;;19.13;98.45
8366;BME280;4220;42.502;24.188;2022-07-04T04:10:12;95518.16;;;19.05;97.04
8366;BME280;4220;42.502;24.188;2022-07-04T04:12:39;95570.50;;;19.54;96.06
8366;BME280;4220;42.502;24.188;2022-07-04T04:15:07;95563.00;;;19.62;94.96
8366;BME280;4220;42.502;24.188;2022-07-04T04:17:34;95560.88;;;19.79;93.90
8366;BME280;4220;42.502;24.188;2022-07-04T04:20:00;95561.94;;;19.93;93.37
8366;BME280;4220;42.502;24.188;2022-07-04T04:22:27;95572.19;;;20.06;92.64
8366;BME280;4220;42.502;24.188;2022-07-04T04:24:57;95556.84;;;20.16;91.40
8366;BME280;4220;42.502;24.188;2022-07-04T04:27:24;95563.88;;;20.28;90.62
8366;BME280;4220;42.502;24.188;2022-07-04T04:29:50;95560.66;;;20.31;89.80
8366;BME280;4220;42.502;24.188;2022-07-04T04:32:17;95553.63;;;20.35;89.86
8366;BME280;4220;42.502;24.188;2022-07-04T04:34:44;95564.69;;;20.38;89.62
8366;BME280;4220;42.502;24.188;2022-07-04T04:37:11;95557.41;;;20.34;90.10
8366;BME280;4220;42.502;24.188;2022-07-04T04:39:38;95565.75;;;20.42;89.70
8366;BME280;4220;42.502;24.188;2022-07-04T04:42:06;95557.13;;;20.40;88.25
8366;BME280;4220;42.502;24.188;2022-07-04T04:44:33;95562.81;;;20.44;88.43
8366;BME280;4220;42.502;24.188;2022-07-04T04:47:00;95556.84;;;20.47;88.64
8366;BME280;4220;42.502;24.188;2022-07-04T04:49:27;95564.13;;;20.61;88.37
8366;BME280;4220;42.502;24.188;2022-07-04T04:51:53;95552.25;;;20.67;88.09
8366;BME280;4220;42.502;24.188;2022-07-04T04:54:20;95552.25;;;20.62;88.38
8366;BME280;4220;42.502;24.188;2022-07-04T04:56:47;95560.81;;;20.90;87.36
8366;BME280;4220;42.502;24.188;2022-07-04T04:59:15;95562.41;;;21.06;86.88
8366;BME280;4220;42.502;24.188;2022-07-04T05:01:42;95563.72;;;21.13;86.74
8366;BME280;4220;42.502;24.188;2022-07-04T05:04:09;95560.94;;;21.33;86.03
8366;BME280;4220;42.502;24.188;2022-07-04T05:06:35;95560.59;;;21.50;85.21
8366;BME280;4220;42.502;24.188;2022-07-04T05:09:02;95564.84;;;21.66;84.19
8366;BME280;4220;42.502;24.188;2022-07-04T05:11:29;95558.00;;;21.79;83.50
8366;BME280;4220;42.502;24.188;2022-07-04T05:13:56;95552.00;;;21.92;82.70
8366;BME280;4220;42.502;24.188;2022-07-04T05:16:24;95547.28;;;22.07;82.16
8366;BME280;4220;42.502;24.188;2022-07-04T05:18:51;95550.44;;;22.20;81.32
8366;BME280;4220;42.502;24.188;2022-07-04T05:21:18;95558.72;;;22.33;81.04
8366;BME280;4220;42.502;24.188;2022-07-04T05:23:44;95552.63;;;22.46;80.68
8366;BME280;4220;42.502;24.188;2022-07-04T05:26:11;95546.88;;;22.58;79.48
8366;BME280;4220;42.502;24.188;2022-07-04T05:28:38;95554.16;;;22.57;79.09
8366;BME280;4220;42.502;24.188;2022-07-04T05:31:04;95552.47;;;22.66;79.53
8366;BME280;4220;42.502;24.188;2022-07-04T05:33:33;95558.88;;;22.75;79.31
8366;BME280;4220;42.502;24.188;2022-07-04T05:35:59;95554.97;;;22.87;78.32
8366;BME280;4220;42.502;24.188;2022-07-04T05:38:26;95554.88;;;22.97;77.51
8366;BME280;4220;42.502;24.188;2022-07-04T05:40:53;95552.06;;;23.07;77.37
8366;BME280;4220;42.502;24.188;2022-07-04T05:43:20;95553.03;;;23.16;77.43
8366;BME280;4220;42.502;24.188;2022-07-04T05:45:47;95551.00;;;23.26;75.76
8366;BME280;4220;42.502;24.188;2022-07-04T05:48:15;95565.53;;;23.35;75.15
8366;BME280;4220;42.502;24.188;2022-07-04T05:50:43;95549.97;;;23.46;74.58
8366;BME280;4220;42.502;24.188;2022-07-04T05:53:10;95547.19;;;23.51;73.92
8366;BME280;4220;42.502;24.188;2022-07-04T05:55:37;95556.94;;;23.71;73.65
8366;BME280;4220;42.502;24.188;2022-07-04T05:58:04;95552.69;;;23.83;72.83
8366;BME280;4220;42.502;24.188;2022-07-04T06:00:31;95554.88;;;23.63;73.79
8366;BME280;4220;42.502;24.188;2022-07-04T06:02:57;95556.28;;;23.60;74.50
8366;BME280;4220;42.502;24.188;2022-07-04T06:05:24;95561.41;;;23.80;73.88
8366;BME280;4220;42.502;24.188;2022-07-04T06:07:52;95514.31;;;23.76;73.45
8366;BME280;4220;42.502;24.188;2022-07-04T06:10:19;95557.59;;;24.00;73.05
8366;BME280;4220;42.502;24.188;2022-07-04T06:12:46;95550.38;;;24.14;72.97
8366;BME280;4220;42.502;24.188;2022-07-04T06:15:13;95543.16;;;24.23;72.33
8366;BME280;4220;42.502;24.188;2022-07-04T06:17:41;95555.88;;;24.41;71.65
8366;BME280;4220;42.502;24.188;2022-07-04T06:20:09;95555.91;;;24.55;70.79
8366;BME280;4220;42.502;24.188;2022-07-04T06:22:40;95547.31;;;24.66;70.10
8366;BME280;4220;42.502;24.188;2022-07-04T06:25:12;95535.66;;;24.66;69.41
8366;BME280;4220;42.502;24.188;2022-07-04T06:27:39;95552.47;;;24.82;69.56
8366;BME280;4220;42.502;24.188;2022-07-04T06:30:07;95552.81;;;24.94;69.47
8366;BME280;4220;42.502;24.188;2022-07-04T06:32:44;95550.47;;;24.87;68.18
8366;BME280;4220;42.502;24.188;2022-07-04T06:35:12;95544.97;;;25.06;68.21
8366;BME280;4220;42.502;24.188;2022-07-04T06:37:56;95542.75;;;25.21;66.87
8366;BME280;4220;42.502;24.188;2022-07-04T06:40:24;95544.75;;;25.29;61.13
8366;BME280;4220;42.502;24.188;2022-07-04T06:42:51;95553.69;;;25.44;60.82
8366;BME280;4220;42.502;24.188;2022-07-04T06:45:18;95548.50;;;25.47;59.90
8366;BME280;4220;42.502;24.188;2022-07-04T06:47:44;95534.19;;;25.42;56.27
8366;BME280;4220;42.502;24.188;2022-07-04T06:50:11;95553.41;;;25.59;51.90
8366;BME280;4220;42.502;24.188;2022-07-04T06:52:38;95550.38;;;25.74;53.09
8366;BME280;4220;42.502;24.188;2022-07-04T06:55:06;95557.06;;;25.90;55.01
8366;BME280;4220;42.502;24.188;2022-07-04T06:57:34;95552.91;;;26.06;54.92
8366;BME280;4220;42.502;24.188;2022-07-04T07:00:02;95548.56;;;26.05;55.33
8366;BME280;4220;42.502;24.188;2022-07-04T07:02:30;95555.69;;;26.15;54.75
8366;BME280;4220;42.502;24.188;2022-07-04T07:04:57;95551.28;;;26.19;54.26
8366;BME280;4220;42.502;24.188;2022-07-04T07:07:24;95554.16;;;26.22;52.74
8366;BME280;4220;42.502;24.188;2022-07-04T07:09:52;95547.03;;;26.26;53.97
8366;BME280;4220;42.502;24.188;2022-07-04T07:12:19;95543.13;;;26.41;54.62
8366;BME280;4220;42.502;24.188;2022-07-04T07:14:47;95549.09;;;26.51;54.90
8366;BME280;4220;42.502;24.188;2022-07-04T07:17:14;95547.66;;;26.54;55.48
8366;BME280;4220;42.502;24.188;2022-07-04T07:19:41;95548.66;;;26.58;54.91
8366;BME280;4220;42.502;24.188;2022-07-04T07:22:09;95544.69;;;26.64;53.70
8366;BME280;4220;42.502;24.188;2022-07-04T07:24:35;95541.69;;;26.66;53.64
8366;BME280;4220;42.502;24.188;2022-07-04T07:27:03;95540.88;;;26.65;53.94
8366;BME280;4220;42.502;24.188;2022-07-04T07:29:30;95539.56;;;26.63;52.69
8366;BME280;4220;42.502;24.188;2022-07-04T07:31:58;95538.75;;;26.62;53.28
8366;BME280;4220;42.502;24.188;2022-07-04T07:34:25;95542.16;;;26.68;53.48
8366;BME280;4220;42.502;24.188;2022-07-04T07:36:52;95538.81;;;26.71;53.61
8366;BME280;4220;42.502;24.188;2022-07-04T07:39:19;95537.88;;;26.75;53.25
8366;BME280;4220;42.502;24.188;2022-07-04T07:41:46;95508.03;;;26.61;52.78
8366;BME280;4220;42.502;24.188;2022-07-04T07:44:13;95533.50;;;26.88;52.78
8366;BME280;4220;42.502;24.188;2022-07-04T07:46:40;95538.28;;;26.91;51.84
8366;BME280;4220;42.502;24.188;2022-07-04T07:49:09;95526.19;;;26.75;52.38
8366;BME280;4220;42.502;24.188;2022-07-04T07:51:36;95530.91;;;26.83;52.91
8366;BME280;4220;42.502;24.188;2022-07-04T07:54:02;95520.75;;;26.75;53.60
8366;BME280;4220;42.502;24.188;2022-07-04T07:56:29;95529.28;;;26.82;54.28
8366;BME280;4220;42.502;24.188;2022-07-04T07:58:56;95528.69;;;26.93;54.43
8366;BME280;4220;42.502;24.188;2022-07-04T08:01:23;95532.56;;;27.01;54.02
8366;BME280;4220;42.502;24.188;2022-07-04T08:03:50;95525.41;;;27.05;55.39
8366;BME280;4220;42.502;24.188;2022-07-04T08:06:35;95529.56;;;27.11;55.39
8366;BME280;4220;42.502;24.188;2022-07-04T08:09:02;95541.00;;;27.21;56.29
8366;BME280;4220;42.502;24.188;2022-07-04T08:11:29;95540.75;;;27.40;55.85
8366;BME280;4220;42.502;24.188;2022-07-04T08:13:56;95539.22;;;27.56;55.42
8366;BME280;4220;42.502;24.188;2022-07-04T08:16:23;95546.59;;;27.81;55.65
8366;BME280;4220;42.502;24.188;2022-07-04T08:18:49;95544.44;;;28.01;54.23
8366;BME280;4220;42.502;24.188;2022-07-04T08:21:16;95548.56;;;27.98;53.04
8366;BME280;4220;42.502;24.188;2022-07-04T08:23:44;95545.84;;;28.07;53.46
8366;BME280;4220;42.502;24.188;2022-07-04T08:26:11;95555.50;;;28.21;52.80
8366;BME280;4220;42.502;24.188;2022-07-04T08:28:38;95547.16;;;28.26;52.00
8366;BME280;4220;42.502;24.188;2022-07-04T08:31:05;95566.41;;;28.47;51.13
8366;BME280;4220;42.502;24.188;2022-07-04T08:33:31;95556.44;;;28.60;50.80
8366;BME280;4220;42.502;24.188;2022-07-04T08:35:58;95552.75;;;28.64;50.28
8366;BME280;4220;42.502;24.188;2022-07-04T08:38:25;95522.09;;;28.50;50.62
8366;BME280;4220;42.502;24.188;2022-07-04T08:40:56;95557.84;;;28.83;50.38
8366;BME280;4220;42.502;24.188;2022-07-04T08:43:24;95558.00;;;28.86;49.95
8366;BME280;4220;42.502;24.188;2022-07-04T08:45:53;95559.25;;;28.97;49.92
8366;BME280;4220;42.502;24.188;2022-07-04T08:48:24;95549.78;;;28.95;49.87
8366;BME280;4220;42.502;24.188;2022-07-04T08:50:55;95554.28;;;28.91;50.30
8366;BME280;4220;42.502;24.188;2022-07-04T08:53:27;95546.88;;;29.00;50.79
8366;BME280;4220;42.502;24.188;2022-07-04T08:55:56;95538.59;;;29.17;50.26
8366;BME280;4220;42.502;24.188;2022-07-04T08:58:42;95553.56;;;29.28;50.60
8366;BME280;4220;42.502;24.188;2022-07-04T09:01:09;95544.19;;;29.38;49.38
8366;BME280;4220;42.502;24.188;2022-07-04T09:03:41;95544.00;;;29.43;49.28
8366;BME280;4220;42.502;24.188;2022-07-04T09:06:08;95538.00;;;29.49;48.75
8366;BME280;4220;42.502;24.188;2022-07-04T09:08:35;95536.81;;;29.59;48.76
8366;BME280;4220;42.502;24.188;2022-07-04T09:11:03;95529.22;;;29.64;47.97
8366;BME280;4220;42.502;24.188;2022-07-04T09:13:30;95542.69;;;29.78;47.89
8366;BME280;4220;42.502;24.188;2022-07-04T09:15:58;95542.09;;;29.93;47.13
8366;BME280;4220;42.502;24.188;2022-07-04T09:18:26;95537.38;;;30.02;46.92
8366;BME280;4220;42.502;24.188;2022-07-04T09:20:56;95534.28;;;30.04;47.14
8366;BME280;4220;42.502;24.188;2022-07-04T09:23:24;95532.09;;;30.18;46.48
8366;BME280;4220;42.502;24.188;2022-07-04T09:26:09;95531.81;;;30.11;45.10
8366;BME280;4220;42.502;24.188;2022-07-04T09:28:36;95525.41;;;29.86;45.12
8366;BME280;4220;42.502;24.188;2022-07-04T09:31:13;95534.97;;;29.80;45.49
8366;BME280;4220;42.502;24.188;2022-07-04T09:33:48;95524.81;;;29.51;46.82
8366;BME280;4220;42.502;24.188;2022-07-04T09:36:18;95479.22;;;29.05;47.96
8366;BME280;4220;42.502;24.188;2022-07-04T09:38:45;95527.50;;;28.84;48.16
8366;BME280;4220;42.502;24.188;2022-07-04T09:41:13;95517.75;;;28.66;49.58
8366;BME280;4220;42.502;24.188;2022-07-04T09:44:03;95509.50;;;28.83;48.40
8366;BME280;4220;42.502;24.188;2022-07-04T09:46:30;95522.69;;;29.28;48.89
8366;BME280;4220;42.502;24.188;2022-07-04T09:48:58;95528.84;;;29.74;46.88
8366;BME280;4220;42.502;24.188;2022-07-04T09:51:39;95527.56;;;30.01;45.70
8366;BME280;4220;42.502;24.188;2022-07-04T09:54:30;95523.63;;;30.31;45.53
8366;BME280;4220;42.502;24.188;2022-07-04T09:57:00;95518.16;;;30.64;45.61
8366;BME280;4220;42.502;24.188;2022-07-04T09:59:28;95526.38;;;30.97;44.47
8366;BME280;4220;42.502;24.188;2022-07-04T10:02:13;95527.44;;;31.29;44.10
8366;BME280;4220;42.502;24.188;2022-07-04T10:04:44;95516.59;;;31.32;43.71
8366;BME280;4220;42.502;24.188;2022-07-04T10:07:11;95514.53;;;31.29;43.77
8366;BME280;4220;42.502;24.188;2022-07-04T10:09:38;95523.34;;;31.59;43.48
8366;BME280;4220;42.502;24.188;2022-07-04T10:12:08;95496.97;;;31.66;42.99
8366;BME280;4220;42.502;24.188;2022-07-04T10:14:35;95520.66;;;32.11;43.09
8366;BME280;4220;42.502;24.188;2022-07-04T10:17:03;95454.25;;;31.93;41.50
8366;BME280;4220;42.502;24.188;2022-07-04T10:19:31;95507.38;;;32.53;40.42
8366;BME280;4220;42.502;24.188;2022-07-04T10:22:01;95520.88;;;32.73;39.92
8366;BME280;4220;42.502;24.188;2022-07-04T10:24:28;95521.28;;;32.87;40.15
8366;BME280;4220;42.502;24.188;2022-07-04T10:26:55;95515.38;;;32.58;39.27
8366;BME280;4220;42.502;24.188;2022-07-04T10:29:23;95514.44;;;32.26;39.39
8366;BME280;4220;42.502;24.188;2022-07-04T10:31:50;95514.66;;;32.33;39.88
8366;BME280;4220;42.502;24.188;2022-07-04T10:34:17;95509.53;;;32.47;39.63
8366;BME280;4220;42.502;24.188;2022-07-04T10:36:51;95500.41;;;32.71;39.71
8366;BME280;4220;42.502;24.188;2022-07-04T10:39:21;95496.53;;;32.04;40.46
8366;BME280;4220;42.502;24.188;2022-07-04T10:41:56;95507.44;;;32.01;40.53
8366;BME280;4220;42.502;24.188;2022-07-04T10:44:25;95499.56;;;32.27;40.29
8366;BME280;4220;42.502;24.188;2022-07-04T10:46:55;95500.72;;;32.54;40.16
8366;BME280;4220;42.502;24.188;2022-07-04T10:49:27;95501.75;;;32.77;39.63
8366;BME280;4220;42.502;24.188;2022-07-04T10:51:56;95498.66;;;32.78;39.45
8366;BME280;4220;42.502;24.188;2022-07-04T10:54:35;95500.31;;;32.67;39.44
8366;BME280;4220;42.502;24.188;2022-07-04T10:57:10;95494.31;;;32.77;39.59
8366;BME280;4220;42.502;24.188;2022-07-04T10:59:39;95497.78;;;32.90;39.67
8366;BME280;4220;42.502;24.188;2022-07-04T11:02:27;95466.88;;;33.09;39.28
8366;BME280;4220;42.502;24.188;2022-07-04T11:04:59;95489.03;;;33.63;37.91
8366;BME280;4220;42.502;24.188;2022-07-04T11:07:55;95484.50;;;34.05;36.74
8366;BME280;4220;42.502;24.188;2022-07-04T11:10:22;95479.28;;;34.19;36.63
8366;BME280;4220;42.502;24.188;2022-07-04T11:13:08;95472.06;;;33.95;37.13
8366;BME280;4220;42.502;24.188;2022-07-04T11:16:02;95473.19;;;34.10;36.77
8366;BME280;4220;42.502;24.188;2022-07-04T11:18:29;95475.56;;;34.11;36.55
8366;BME280;4220;42.502;24.188;2022-07-04T11:20:56;95472.09;;;34.14;36.35
8366;BME280;4220;42.502;24.188;2022-07-04T11:23:23;95467.00;;;33.47;37.13
8366;BME280;4220;42.502;24.188;2022-07-04T11:25:51;95463.69;;;33.07;38.22
8366;BME280;4220;42.502;24.188;2022-07-04T11:28:20;95475.56;;;33.11;38.07
8366;BME280;4220;42.502;24.188;2022-07-04T11:30:48;95458.44;;;33.33;37.77
8366;BME280;4220;42.502;24.188;2022-07-04T11:33:19;95439.72;;;33.54;37.10
8366;BME280;4220;42.502;24.188;2022-07-04T11:36:01;95476.81;;;33.79;37.14
8366;BME280;4220;42.502;24.188;2022-07-04T11:38:43;95454.81;;;33.13;38.40
8366;BME280;4220;42.502;24.188;2022-07-04T11:41:10;95464.75;;;33.18;38.04
8366;BME280;4220;42.502;24.188;2022-07-04T11:43:54;95467.75;;;33.28;38.25
8366;BME280;4220;42.502;24.188;2022-07-04T11:46:38;95462.09;;;33.72;37.39
8366;BME280;4220;42.502;24.188;2022-07-04T11:49:10;95461.16;;;34.37;36.47
8366;BME280;4220;42.502;24.188;2022-07-04T11:51:41;95458.25;;;34.91;36.23
8366;BME280;4220;42.502;24.188;2022-07-04T11:54:09;95454.94;;;35.27;35.41
8366;BME280;4220;42.502;24.188;2022-07-04T11:56:36;95452.88;;;35.47;34.60
8366;BME280;4220;42.502;24.188;2022-07-04T11:59:10;95459.72;;;35.79;34.12
8366;BME280;4220;42.502;24.188;2022-07-04T12:01:37;95455.78;;;36.10;33.83
8366;BME280;4220;42.502;24.188;2022-07-04T12:04:13;95461.34;;;36.43;33.49
8366;BME280;4220;42.502;24.188;2022-07-04T12:06:40;95462.16;;;36.44;33.22
8366;BME280;4220;42.502;24.188;2022-07-04T12:09:07;95452.19;;;36.36;32.53
8366;BME280;4220;42.502;24.188;2022-07-04T12:11:50;95444.97;;;36.28;32.34
8366;BME280;4220;42.502;24.188;2022-07-04T12:14:16;95438.97;;;35.63;33.87
8366;BME280;4220;42.502;24.188;2022-07-04T12:16:43;95441.31;;;35.90;34.01
8366;BME280;4220;42.502;24.188;2022-07-04T12:19:13;95431.28;;;36.38;34.02
8366;BME280;4220;42.502;24.188;2022-07-04T12:21:42;95427.91;;;36.92;33.43
8366;BME280;4220;42.502;24.188;2022-07-04T12:24:09;95429.06;;;37.31;32.31
8366;BME280;4220;42.502;24.188;2022-07-04T12:26:44;95426.81;;;37.44;31.50
8366;BME280;4220;42.502;24.188;2022-07-04T12:29:20;95428.91;;;37.61;31.91
8366;BME280;4220;42.502;24.188;2022-07-04T12:31:51;95423.06;;;37.80;31.39
8366;BME280;4220;42.502;24.188;2022-07-04T12:34:20;95416.47;;;37.99;31.16
8366;BME280;4220;42.502;24.188;2022-07-04T12:36:51;95406.75;;;37.61;31.34
8366;BME280;4220;42.502;24.188;2022-07-04T12:39:31;95408.63;;;37.47;31.24
8366;BME280;4220;42.502;24.188;2022-07-04T12:42:06;95407.22;;;37.77;30.95
8366;BME280;4220;42.502;24.188;2022-07-04T12:44:33;95403.19;;;37.61;30.96
8366;BME280;4220;42.502;24.188;2022-07-04T12:47:00;95405.50;;;37.55;32.09
8366;BME280;4220;42.502;24.188;2022-07-04T12:49:28;95400.53;;;37.78;31.07
8366;BME280;4220;42.502;24.188;2022-07-04T12:52:07;95401.09;;;38.09;31.04
8366;BME280;4220;42.502;24.188;2022-07-04T12:54:35;95405.94;;;38.29;30.49
8366;BME280;4220;42.502;24.188;2022-07-04T12:57:09;95341.75;;;38.20;30.27
8366;BME280;4220;42.502;24.188;2022-07-04T12:59:37;95404.00;;;38.51;29.39
8366;BME280;4220;42.502;24.188;2022-07-04T13:02:04;95415.31;;;38.04;29.78
8366;BME280;4220;42.502;24.188;2022-07-04T13:04:33;95399.22;;;37.07;31.09
8366;BME280;4220;42.502;24.188;2022-07-04T13:07:12;95401.97;;;37.04;31.40
8366;BME280;4220;42.502;24.188;2022-07-04T13:09:41;95379.47;;;37.09;31.01
8366;BME280;4220;42.502;24.188;2022-07-04T13:12:08;95397.19;;;37.48;30.67
8366;BME280;4220;42.502;24.188;2022-07-04T13:14:58;95399.84;;;37.99;30.38
8366;BME280;4220;42.502;24.188;2022-07-04T13:17:26;95396.00;;;38.25;29.99